sensor_id;sensor_type;location;lat;lon;timestamp;P1;durP1;ratioP1;P2;durP2;ratioP2
39078;SDS011;24829;49.208;12.080;2022-09-09T00:03:27;5.72;;;3.13;;
39078;SDS011;24829;49.208;12.080;2022-09-09T00:11:41;4.13;;;2.90;;
39078;SDS011;24829;49.208;12.080;2022-09-09T00:14:13;3.33;;;2.13;;
39078;SDS011;24829;49.208;12.080;2022-09-09T00:16:47;2.83;;;2.28;;
39078;SDS011;24829;49.208;12.080;2022-09-09T00:19:22;4.75;;;2.53;;
39078;SDS011;24829;49.208;12.080;2022-09-09T00:22:01;7.43;;;2.95;;
39078;SDS011;24829;49.208;12.080;2022-09-09T00:24:45;4.50;;;2.58;;
39078;SDS011;24829;49.208;12.080;2022-09-09T00:30:25;4.30;;;2.72;;
39078;SDS011;24829;49.208;12.080;2022-09-09T00:32:59;3.25;;;2.60;;
39078;SDS011;24829;49.208;12.080;2022-09-09T00:35:37;4.88;;;2.60;;
39078;SDS011;24829;49.208;12.080;2022-09-09T00:38:14;7.50;;;2.38;;
39078;SDS011;24829;49.208;12.080;2022-09-09T00:40:56;4.07;;;3.00;;
39078;SDS011;24829;49.208;12.080;2022-09-09T00:43:29;3.30;;;2.80;;
39078;SDS011;24829;49.208;12.080;2022-09-09T00:51:41;4.60;;;3.00;;
39078;SDS011;24829;49.208;12.080;2022-09-09T00:56:47;5.43;;;2.97;;
39078;SDS011;24829;49.208;12.080;2022-09-09T01:01:47;6.38;;;3.35;;
39078;SDS011;24829;49.208;12.080;2022-09-09T01:04:16;4.97;;;2.60;;
39078;SDS011;24829;49.208;12.080;2022-09-09T01:06:45;6.82;;;3.72;;
39078;SDS011;24829;49.208;12.080;2022-09-09T01:09:25;6.25;;;3.28;;
39078;SDS011;24829;49.208;12.080;2022-09-09T01:12:07;3.78;;;2.97;;
39078;SDS011;24829;49.208;12.080;2022-09-09T01:14:43;3.28;;;2.90;;
39078;SDS011;24829;49.208;12.080;2022-09-09T01:17:27;5.85;;;3.13;;
39078;SDS011;24829;49.208;12.080;2022-09-09T01:20:24;6.72;;;2.78;;
39078;SDS011;24829;49.208;12.080;2022-09-09T01:26:04;5.55;;;3.45;;
39078;SDS011;24829;49.208;12.080;2022-09-09T01:28:50;5.50;;;3.42;;
39078;SDS011;24829;49.208;12.080;2022-09-09T01:31:30;5.05;;;3.50;;
39078;SDS011;24829;49.208;12.080;2022-09-09T01:34:16;4.47;;;3.78;;
39078;SDS011;24829;49.208;12.080;2022-09-09T01:36:46;4.75;;;3.65;;
39078;SDS011;24829;49.208;12.080;2022-09-09T01:39:17;4.35;;;3.10;;
39078;SDS011;24829;49.208;12.080;2022-09-09T01:41:42;8.05;;;2.92;;
39078;SDS011;24829;49.208;12.080;2022-09-09T01:44:08;5.82;;;3.00;;
39078;SDS011;24829;49.208;12.080;2022-09-09T01:46:35;5.72;;;3.22;;
39078;SDS011;24829;49.208;12.080;2022-09-09T01:49:00;4.75;;;3.63;;
39078;SDS011;24829;49.208;12.080;2022-09-09T01:51:29;4.10;;;3.03;;
39078;SDS011;24829;49.208;12.080;2022-09-09T01:53:55;4.10;;;3.20;;
39078;SDS011;24829;49.208;12.080;2022-09-09T01:59:14;4.88;;;2.70;;
39078;SDS011;24829;49.208;12.080;2022-09-09T02:06:42;5.20;;;3.45;;
39078;SDS011;24829;49.208;12.080;2022-09-09T02:09:10;4.65;;;3.08;;
39078;SDS011;24829;49.208;12.080;2022-09-09T02:11:38;6.30;;;3.08;;
39078;SDS011;24829;49.208;12.080;2022-09-09T02:14:18;3.53;;;3.22;;
39078;SDS011;24829;49.208;12.080;2022-09-09T02:16:51;4.60;;;4.03;;
39078;SDS011;24829;49.208;12.080;2022-09-09T02:21:52;5.05;;;4.55;;
39078;SDS011;24829;49.208;12.080;2022-09-09T02:24:22;6.10;;;4.85;;
39078;SDS011;24829;49.208;12.080;2022-09-09T02:26:49;6.00;;;5.35;;
39078;SDS011;24829;49.208;12.080;2022-09-09T02:29:18;6.22;;;5.22;;
39078;SDS011;24829;49.208;12.080;2022-09-09T02:31:47;7.28;;;6.45;;
39078;SDS011;24829;49.208;12.080;2022-09-09T02:34:15;8.30;;;7.10;;
39078;SDS011;24829;49.208;12.080;2022-09-09T02:36:44;10.77;;;6.60;;
39078;SDS011;24829;49.208;12.080;2022-09-09T02:39:11;7.47;;;5.60;;
39078;SDS011;24829;49.208;12.080;2022-09-09T02:41:40;7.78;;;6.97;;
39078;SDS011;24829;49.208;12.080;2022-09-09T02:44:10;7.63;;;6.90;;
39078;SDS011;24829;49.208;12.080;2022-09-09T02:49:09;10.25;;;6.50;;
39078;SDS011;24829;49.208;12.080;2022-09-09T02:54:24;9.13;;;8.23;;
39078;SDS011;24829;49.208;12.080;2022-09-09T02:56:53;8.50;;;7.65;;
39078;SDS011;24829;49.208;12.080;2022-09-09T02:59:20;9.60;;;6.95;;
39078;SDS011;24829;49.208;12.080;2022-09-09T03:01:46;8.57;;;7.15;;
39078;SDS011;24829;49.208;12.080;2022-09-09T03:04:12;9.93;;;8.35;;
39078;SDS011;24829;49.208;12.080;2022-09-09T03:06:38;8.00;;;7.20;;
39078;SDS011;24829;49.208;12.080;2022-09-09T03:09:03;8.10;;;7.18;;
39078;SDS011;24829;49.208;12.080;2022-09-09T03:11:29;9.77;;;7.65;;
39078;SDS011;24829;49.208;12.080;2022-09-09T03:13:55;7.57;;;6.82;;
39078;SDS011;24829;49.208;12.080;2022-09-09T03:16:23;7.95;;;7.03;;
39078;SDS011;24829;49.208;12.080;2022-09-09T03:18:49;8.65;;;7.28;;
39078;SDS011;24829;49.208;12.080;2022-09-09T03:21:15;8.32;;;6.20;;
39078;SDS011;24829;49.208;12.080;2022-09-09T03:23:41;9.00;;;7.53;;
39078;SDS011;24829;49.208;12.080;2022-09-09T03:26:06;14.63;;;7.53;;
39078;SDS011;24829;49.208;12.080;2022-09-09T03:28:32;10.82;;;8.27;;
39078;SDS011;24829;49.208;12.080;2022-09-09T03:31:05;11.50;;;8.35;;
39078;SDS011;24829;49.208;12.080;2022-09-09T03:33:31;10.63;;;7.90;;
39078;SDS011;24829;49.208;12.080;2022-09-09T03:35:57;11.23;;;7.95;;
39078;SDS011;24829;49.208;12.080;2022-09-09T03:38:23;9.32;;;7.82;;
39078;SDS011;24829;49.208;12.080;2022-09-09T03:40:52;8.70;;;7.45;;
39078;SDS011;24829;49.208;12.080;2022-09-09T03:43:25;7.55;;;6.78;;
39078;SDS011;24829;49.208;12.080;2022-09-09T03:45:52;9.27;;;6.97;;
39078;SDS011;24829;49.208;12.080;2022-09-09T03:48:18;8.80;;;6.82;;
39078;SDS011;24829;49.208;12.080;2022-09-09T03:50:48;10.27;;;8.07;;
39078;SDS011;24829;49.208;12.080;2022-09-09T03:53:16;7.75;;;6.85;;
39078;SDS011;24829;49.208;12.080;2022-09-09T03:55:49;11.10;;;7.35;;
39078;SDS011;24829;49.208;12.080;2022-09-09T03:58:19;13.25;;;8.43;;
39078;SDS011;24829;49.208;12.080;2022-09-09T04:00:55;8.27;;;7.43;;
39078;SDS011;24829;49.208;12.080;2022-09-09T04:03:22;11.82;;;8.25;;
39078;SDS011;24829;49.208;12.080;2022-09-09T04:05:53;10.57;;;8.30;;
39078;SDS011;24829;49.208;12.080;2022-09-09T04:08:20;11.48;;;8.05;;
39078;SDS011;24829;49.208;12.080;2022-09-09T04:10:47;10.43;;;8.93;;
39078;SDS011;24829;49.208;12.080;2022-09-09T04:13:13;10.25;;;8.93;;
39078;SDS011;24829;49.208;12.080;2022-09-09T04:15:42;10.43;;;8.52;;
39078;SDS011;24829;49.208;12.080;2022-09-09T04:18:19;10.77;;;8.90;;
39078;SDS011;24829;49.208;12.080;2022-09-09T04:20:49;10.48;;;9.45;;
39078;SDS011;24829;49.208;12.080;2022-09-09T04:23:16;11.25;;;9.15;;
39078;SDS011;24829;49.208;12.080;2022-09-09T04:25:53;10.18;;;8.73;;
39078;SDS011;24829;49.208;12.080;2022-09-09T04:28:20;11.15;;;9.55;;
39078;SDS011;24829;49.208;12.080;2022-09-09T04:30:48;10.15;;;9.15;;
39078;SDS011;24829;49.208;12.080;2022-09-09T04:33:13;10.13;;;9.13;;
39078;SDS011;24829;49.208;12.080;2022-09-09T04:35:44;10.23;;;9.23;;
39078;SDS011;24829;49.208;12.080;2022-09-09T04:38:11;14.15;;;10.93;;
39078;SDS011;24829;49.208;12.080;2022-09-09T04:40:37;11.43;;;10.27;;
39078;SDS011;24829;49.208;12.080;2022-09-09T04:43:08;13.70;;;11.77;;
39078;SDS011;24829;49.208;12.080;2022-09-09T04:45:34;11.88;;;10.20;;
39078;SDS011;24829;49.208;12.080;2022-09-09T04:48:00;14.52;;;10.82;;
39078;SDS011;24829;49.208;12.080;2022-09-09T04:50:27;14.25;;;11.45;;
39078;SDS011;24829;49.208;12.080;2022-09-09T04:52:53;15.77;;;12.00;;
39078;SDS011;24829;49.208;12.080;2022-09-09T04:55:19;14.30;;;12.10;;
39078;SDS011;24829;49.208;12.080;2022-09-09T04:57:45;15.85;;;13.52;;
39078;SDS011;24829;49.208;12.080;2022-09-09T05:00:10;15.85;;;14.20;;
39078;SDS011;24829;49.208;12.080;2022-09-09T05:02:38;33.95;;;14.07;;
39078;SDS011;24829;49.208;12.080;2022-09-09T05:05:07;17.77;;;14.20;;
39078;SDS011;24829;49.208;12.080;2022-09-09T05:07:35;21.00;;;14.38;;
39078;SDS011;24829;49.208;12.080;2022-09-09T05:10:02;16.63;;;14.75;;
39078;SDS011;24829;49.208;12.080;2022-09-09T05:12:31;22.30;;;15.80;;
39078;SDS011;24829;49.208;12.080;2022-09-09T05:14:56;17.42;;;15.50;;
39078;SDS011;24829;49.208;12.080;2022-09-09T05:17:23;16.00;;;14.40;;
39078;SDS011;24829;49.208;12.080;2022-09-09T05:19:48;16.02;;;14.27;;
39078;SDS011;24829;49.208;12.080;2022-09-09T05:22:18;25.05;;;16.40;;
39078;SDS011;24829;49.208;12.080;2022-09-09T05:24:48;23.40;;;16.35;;
39078;SDS011;24829;49.208;12.080;2022-09-09T05:27:16;19.75;;;17.02;;
39078;SDS011;24829;49.208;12.080;2022-09-09T05:29:46;19.33;;;15.32;;
39078;SDS011;24829;49.208;12.080;2022-09-09T05:32:12;21.10;;;17.25;;
39078;SDS011;24829;49.208;12.080;2022-09-09T05:34:40;23.27;;;16.73;;
39078;SDS011;24829;49.208;12.080;2022-09-09T05:37:06;20.33;;;17.33;;
39078;SDS011;24829;49.208;12.080;2022-09-09T05:39:32;21.63;;;17.08;;
39078;SDS011;24829;49.208;12.080;2022-09-09T05:41:59;21.55;;;17.60;;
39078;SDS011;24829;49.208;12.080;2022-09-09T05:44:24;21.40;;;17.85;;
39078;SDS011;24829;49.208;12.080;2022-09-09T05:46:52;19.48;;;17.20;;
39078;SDS011;24829;49.208;12.080;2022-09-09T05:49:19;19.05;;;16.30;;
39078;SDS011;24829;49.208;12.080;2022-09-09T05:51:45;21.60;;;15.25;;
39078;SDS011;24829;49.208;12.080;2022-09-09T05:54:11;18.58;;;16.55;;
39078;SDS011;24829;49.208;12.080;2022-09-09T05:56:40;16.83;;;14.80;;
39078;SDS011;24829;49.208;12.080;2022-09-09T05:59:05;18.83;;;15.38;;
39078;SDS011;24829;49.208;12.080;2022-09-09T06:01:32;16.23;;;14.10;;
39078;SDS011;24829;49.208;12.080;2022-09-09T06:03:59;16.92;;;13.75;;
39078;SDS011;24829;49.208;12.080;2022-09-09T06:06:26;15.25;;;13.65;;
39078;SDS011;24829;49.208;12.080;2022-09-09T06:08:56;15.63;;;13.02;;
39078;SDS011;24829;49.208;12.080;2022-09-09T06:11:29;15.27;;;13.65;;
39078;SDS011;24829;49.208;12.080;2022-09-09T06:13:59;16.35;;;13.23;;
39078;SDS011;24829;49.208;12.080;2022-09-09T06:16:26;20.67;;;13.60;;
39078;SDS011;24829;49.208;12.080;2022-09-09T06:18:56;18.92;;;14.10;;
39078;SDS011;24829;49.208;12.080;2022-09-09T06:24:09;17.75;;;12.48;;
39078;SDS011;24829;49.208;12.080;2022-09-09T06:26:36;15.50;;;13.48;;
39078;SDS011;24829;49.208;12.080;2022-09-09T06:29:05;14.65;;;13.25;;
39078;SDS011;24829;49.208;12.080;2022-09-09T06:31:32;16.55;;;13.57;;
39078;SDS011;24829;49.208;12.080;2022-09-09T06:33:59;15.55;;;13.85;;
39078;SDS011;24829;49.208;12.080;2022-09-09T06:36:26;13.43;;;11.95;;
39078;SDS011;24829;49.208;12.080;2022-09-09T06:38:57;13.57;;;11.95;;
39078;SDS011;24829;49.208;12.080;2022-09-09T06:41:24;12.18;;;10.82;;
39078;SDS011;24829;49.208;12.080;2022-09-09T06:43:52;12.52;;;11.20;;
39078;SDS011;24829;49.208;12.080;2022-09-09T06:46:18;11.70;;;10.50;;
39078;SDS011;24829;49.208;12.080;2022-09-09T06:48:46;13.65;;;11.07;;
39078;SDS011;24829;49.208;12.080;2022-09-09T06:53:40;9.77;;;8.73;;
39078;SDS011;24829;49.208;12.080;2022-09-09T06:58:39;9.02;;;7.53;;
39078;SDS011;24829;49.208;12.080;2022-09-09T07:01:18;9.93;;;6.53;;
39078;SDS011;24829;49.208;12.080;2022-09-09T07:03:49;7.22;;;6.53;;
39078;SDS011;24829;49.208;12.080;2022-09-09T07:08:55;8.23;;;5.85;;
39078;SDS011;24829;49.208;12.080;2022-09-09T07:11:24;6.75;;;5.75;;
39078;SDS011;24829;49.208;12.080;2022-09-09T07:13:53;6.53;;;5.60;;
39078;SDS011;24829;49.208;12.080;2022-09-09T07:16:19;4.97;;;4.40;;
39078;SDS011;24829;49.208;12.080;2022-09-09T07:18:48;5.88;;;5.28;;
39078;SDS011;24829;49.208;12.080;2022-09-09T07:21:15;5.65;;;4.82;;
39078;SDS011;24829;49.208;12.080;2022-09-09T07:23:42;6.25;;;5.40;;
39078;SDS011;24829;49.208;12.080;2022-09-09T07:26:15;9.75;;;5.53;;
39078;SDS011;24829;49.208;12.080;2022-09-09T07:28:44;7.10;;;4.80;;
39078;SDS011;24829;49.208;12.080;2022-09-09T07:31:13;7.07;;;5.05;;
39078;SDS011;24829;49.208;12.080;2022-09-09T07:33:43;7.22;;;4.85;;
39078;SDS011;24829;49.208;12.080;2022-09-09T07:36:10;6.45;;;4.95;;
39078;SDS011;24829;49.208;12.080;2022-09-09T07:38:40;8.05;;;5.30;;
39078;SDS011;24829;49.208;12.080;2022-09-09T07:41:08;8.25;;;4.90;;
39078;SDS011;24829;49.208;12.080;2022-09-09T07:43:39;6.25;;;4.93;;
39078;SDS011;24829;49.208;12.080;2022-09-09T07:46:05;6.35;;;4.28;;
39078;SDS011;24829;49.208;12.080;2022-09-09T07:48:31;7.05;;;4.35;;
39078;SDS011;24829;49.208;12.080;2022-09-09T07:51:07;6.28;;;5.03;;
39078;SDS011;24829;49.208;12.080;2022-09-09T07:53:36;7.25;;;5.18;;
39078;SDS011;24829;49.208;12.080;2022-09-09T07:56:07;8.88;;;6.05;;
39078;SDS011;24829;49.208;12.080;2022-09-09T07:58:38;8.55;;;6.60;;
39078;SDS011;24829;49.208;12.080;2022-09-09T08:03:38;8.73;;;5.57;;
39078;SDS011;24829;49.208;12.080;2022-09-09T08:06:04;8.43;;;6.13;;
39078;SDS011;24829;49.208;12.080;2022-09-09T08:08:32;8.90;;;6.97;;
39078;SDS011;24829;49.208;12.080;2022-09-09T08:11:06;7.88;;;6.72;;
39078;SDS011;24829;49.208;12.080;2022-09-09T08:13:37;10.80;;;8.40;;
39078;SDS011;24829;49.208;12.080;2022-09-09T08:16:14;8.63;;;7.80;;
39078;SDS011;24829;49.208;12.080;2022-09-09T08:18:41;9.38;;;7.72;;
39078;SDS011;24829;49.208;12.080;2022-09-09T08:21:17;9.75;;;7.60;;
39078;SDS011;24829;49.208;12.080;2022-09-09T08:23:46;10.45;;;6.93;;
39078;SDS011;24829;49.208;12.080;2022-09-09T08:26:14;8.75;;;6.30;;
39078;SDS011;24829;49.208;12.080;2022-09-09T08:28:41;9.38;;;6.53;;
39078;SDS011;24829;49.208;12.080;2022-09-09T08:31:12;8.48;;;6.18;;
39078;SDS011;24829;49.208;12.080;2022-09-09T08:33:40;11.27;;;6.45;;
39078;SDS011;24829;49.208;12.080;2022-09-09T08:36:08;6.78;;;6.07;;
39078;SDS011;24829;49.208;12.080;2022-09-09T08:38:35;9.27;;;5.45;;
39078;SDS011;24829;49.208;12.080;2022-09-09T08:44:28;11.18;;;5.15;;
39078;SDS011;24829;49.208;12.080;2022-09-09T08:55:18;8.18;;;3.95;;
39078;SDS011;24829;49.208;12.080;2022-09-09T08:57:49;9.15;;;3.92;;
39078;SDS011;24829;49.208;12.080;2022-09-09T09:00:17;4.43;;;3.10;;
39078;SDS011;24829;49.208;12.080;2022-09-09T09:02:46;6.47;;;3.17;;
39078;SDS011;24829;49.208;12.080;2022-09-09T09:05:41;8.00;;;4.13;;
39078;SDS011;24829;49.208;12.080;2022-09-09T09:08:22;5.40;;;2.63;;
39078;SDS011;24829;49.208;12.080;2022-09-09T09:10:58;6.88;;;2.10;;
39078;SDS011;24829;49.208;12.080;2022-09-09T09:16:18;3.33;;;2.40;;
39078;SDS011;24829;49.208;12.080;2022-09-09T09:18:57;4.38;;;2.00;;
39078;SDS011;24829;49.208;12.080;2022-09-09T09:21:29;5.30;;;2.15;;
39078;SDS011;24829;49.208;12.080;2022-09-09T09:24:02;4.45;;;2.72;;
39078;SDS011;24829;49.208;12.080;2022-09-09T09:26:34;4.43;;;2.47;;
39078;SDS011;24829;49.208;12.080;2022-09-09T09:29:03;8.05;;;3.13;;
39078;SDS011;24829;49.208;12.080;2022-09-09T09:31:36;4.38;;;2.50;;
39078;SDS011;24829;49.208;12.080;2022-09-09T09:34:02;5.63;;;2.53;;
39078;SDS011;24829;49.208;12.080;2022-09-09T09:36:37;3.72;;;2.55;;
39078;SDS011;24829;49.208;12.080;2022-09-09T09:39:06;4.68;;;2.65;;
39078;SDS011;24829;49.208;12.080;2022-09-09T09:41:32;5.10;;;2.10;;
39078;SDS011;24829;49.208;12.080;2022-09-09T09:44:01;4.28;;;1.75;;
39078;SDS011;24829;49.208;12.080;2022-09-09T09:46:27;3.13;;;1.45;;
39078;SDS011;24829;49.208;12.080;2022-09-09T09:49:00;2.75;;;1.42;;
39078;SDS011;24829;49.208;12.080;2022-09-09T09:51:28;3.30;;;1.42;;
39078;SDS011;24829;49.208;12.080;2022-09-09T09:54:03;6.68;;;2.00;;
39078;SDS011;24829;49.208;12.080;2022-09-09T09:56:38;1.98;;;0.90;;
39078;SDS011;24829;49.208;12.080;2022-09-09T09:59:05;1.85;;;1.15;;
39078;SDS011;24829;49.208;12.080;2022-09-09T10:01:45;3.50;;;1.00;;
39078;SDS011;24829;49.208;12.080;2022-09-09T10:04:15;2.15;;;1.10;;
39078;SDS011;24829;49.208;12.080;2022-09-09T10:06:48;3.80;;;1.17;;
39078;SDS011;24829;49.208;12.080;2022-09-09T10:09:21;3.17;;;1.45;;
39078;SDS011;24829;49.208;12.080;2022-09-09T10:14:45;3.00;;;1.30;;
39078;SDS011;24829;49.208;12.080;2022-09-09T10:26:38;2.55;;;1.00;;
39078;SDS011;24829;49.208;12.080;2022-09-09T10:29:29;4.30;;;1.15;;
39078;SDS011;24829;49.208;12.080;2022-09-09T10:34:57;2.50;;;0.82;;
39078;SDS011;24829;49.208;12.080;2022-09-09T10:40:00;2.58;;;1.05;;
39078;SDS011;24829;49.208;12.080;2022-09-09T10:42:43;2.55;;;0.80;;
39078;SDS011;24829;49.208;12.080;2022-09-09T10:45:29;0.90;;;0.70;;
39078;SDS011;24829;49.208;12.080;2022-09-09T10:56:07;3.45;;;0.98;;
39078;SDS011;24829;49.208;12.080;2022-09-09T10:58:40;2.17;;;0.68;;
39078;SDS011;24829;49.208;12.080;2022-09-09T11:01:10;5.40;;;0.95;;
39078;SDS011;24829;49.208;12.080;2022-09-09T11:03:45;1.67;;;0.65;;
39078;SDS011;24829;49.208;12.080;2022-09-09T11:06:19;1.00;;;0.47;;
39078;SDS011;24829;49.208;12.080;2022-09-09T11:08:47;0.85;;;0.47;;
39078;SDS011;24829;49.208;12.080;2022-09-09T11:11:29;1.60;;;0.52;;
39078;SDS011;24829;49.208;12.080;2022-09-09T11:14:19;2.37;;;0.80;;
39078;SDS011;24829;49.208;12.080;2022-09-09T11:16:52;1.80;;;0.70;;
39078;SDS011;24829;49.208;12.080;2022-09-09T11:21:59;2.88;;;0.50;;
39078;SDS011;24829;49.208;12.080;2022-09-09T11:42:04;7.93;;;1.10;;
39078;SDS011;24829;49.208;12.080;2022-09-09T11:44:37;1.35;;;0.80;;
39078;SDS011;24829;49.208;12.080;2022-09-09T11:47:02;5.28;;;1.17;;
39078;SDS011;24829;49.208;12.080;2022-09-09T11:49:50;1.67;;;0.77;;
39078;SDS011;24829;49.208;12.080;2022-09-09T11:55:11;2.13;;;0.70;;
39078;SDS011;24829;49.208;12.080;2022-09-09T11:57:43;2.35;;;0.70;;
39078;SDS011;24829;49.208;12.080;2022-09-09T12:00:28;1.45;;;0.63;;
39078;SDS011;24829;49.208;12.080;2022-09-09T12:09:05;3.67;;;0.85;;
39078;SDS011;24829;49.208;12.080;2022-09-09T12:11:33;2.38;;;0.60;;
39078;SDS011;24829;49.208;12.080;2022-09-09T12:13:59;1.60;;;0.70;;
39078;SDS011;24829;49.208;12.080;2022-09-09T12:16:36;0.50;;;0.40;;
39078;SDS011;24829;49.208;12.080;2022-09-09T12:24:35;2.88;;;0.70;;
39078;SDS011;24829;49.208;12.080;2022-09-09T12:27:18;1.08;;;0.47;;
39078;SDS011;24829;49.208;12.080;2022-09-09T12:30:07;5.00;;;1.88;;
39078;SDS011;24829;49.208;12.080;2022-09-09T12:32:36;3.22;;;0.80;;
39078;SDS011;24829;49.208;12.080;2022-09-09T12:35:03;1.98;;;0.90;;
39078;SDS011;24829;49.208;12.080;2022-09-09T12:37:35;2.65;;;0.90;;
39078;SDS011;24829;49.208;12.080;2022-09-09T12:40:26;2.38;;;0.80;;
39078;SDS011;24829;49.208;12.080;2022-09-09T12:43:00;1.77;;;0.85;;
39078;SDS011;24829;49.208;12.080;2022-09-09T12:45:26;2.00;;;0.98;;
39078;SDS011;24829;49.208;12.080;2022-09-09T12:50:31;2.03;;;0.90;;
39078;SDS011;24829;49.208;12.080;2022-09-09T12:55:55;2.75;;;0.90;;
39078;SDS011;24829;49.208;12.080;2022-09-09T12:58:24;34.35;;;30.67;;
39078;SDS011;24829;49.208;12.080;2022-09-09T13:00:53;3.95;;;1.10;;
39078;SDS011;24829;49.208;12.080;2022-09-09T13:03:24;22.85;;;16.75;;
39078;SDS011;24829;49.208;12.080;2022-09-09T13:05:51;3.42;;;2.22;;
39078;SDS011;24829;49.208;12.080;2022-09-09T13:08:18;4.35;;;2.00;;
39078;SDS011;24829;49.208;12.080;2022-09-09T13:10:57;4.30;;;2.40;;
39078;SDS011;24829;49.208;12.080;2022-09-09T13:13:27;2.60;;;0.90;;
39078;SDS011;24829;49.208;12.080;2022-09-09T13:16:04;2.85;;;1.45;;
39078;SDS011;24829;49.208;12.080;2022-09-09T13:18:34;4.32;;;1.27;;
39078;SDS011;24829;49.208;12.080;2022-09-09T13:21:01;3.63;;;1.00;;
39078;SDS011;24829;49.208;12.080;2022-09-09T13:23:28;2.53;;;1.15;;
39078;SDS011;24829;49.208;12.080;2022-09-09T13:25:57;2.33;;;1.10;;
39078;SDS011;24829;49.208;12.080;2022-09-09T13:28:25;6.97;;;1.15;;
39078;SDS011;24829;49.208;12.080;2022-09-09T13:30:59;2.42;;;1.00;;
39078;SDS011;24829;49.208;12.080;2022-09-09T13:33:33;6.47;;;1.67;;
39078;SDS011;24829;49.208;12.080;2022-09-09T13:38:36;3.70;;;1.40;;
39078;SDS011;24829;49.208;12.080;2022-09-09T13:41:22;6.43;;;1.17;;
39078;SDS011;24829;49.208;12.080;2022-09-09T13:43:58;2.97;;;1.00;;
39078;SDS011;24829;49.208;12.080;2022-09-09T13:48:54;3.13;;;0.90;;
39078;SDS011;24829;49.208;12.080;2022-09-09T13:51:26;4.43;;;1.25;;
39078;SDS011;24829;49.208;12.080;2022-09-09T13:54:02;3.00;;;1.08;;
39078;SDS011;24829;49.208;12.080;2022-09-09T13:56:31;4.30;;;1.45;;
39078;SDS011;24829;49.208;12.080;2022-09-09T13:58:58;1.85;;;1.00;;
39078;SDS011;24829;49.208;12.080;2022-09-09T14:01:24;1.80;;;0.93;;
39078;SDS011;24829;49.208;12.080;2022-09-09T14:03:49;2.33;;;0.90;;
39078;SDS011;24829;49.208;12.080;2022-09-09T14:06:15;3.13;;;1.13;;
39078;SDS011;24829;49.208;12.080;2022-09-09T14:08:43;1.75;;;0.90;;
39078;SDS011;24829;49.208;12.080;2022-09-09T14:11:11;3.15;;;1.52;;
39078;SDS011;24829;49.208;12.080;2022-09-09T14:13:38;6.55;;;2.05;;
39078;SDS011;24829;49.208;12.080;2022-09-09T14:16:04;4.90;;;2.72;;
39078;SDS011;24829;49.208;12.080;2022-09-09T14:18:30;6.18;;;2.00;;
39078;SDS011;24829;49.208;12.080;2022-09-09T14:20:55;3.60;;;1.40;;
39078;SDS011;24829;49.208;12.080;2022-09-09T14:23:22;2.88;;;1.20;;
39078;SDS011;24829;49.208;12.080;2022-09-09T14:25:49;3.80;;;0.90;;
39078;SDS011;24829;49.208;12.080;2022-09-09T14:28:15;2.72;;;1.10;;
39078;SDS011;24829;49.208;12.080;2022-09-09T14:30:42;3.58;;;1.30;;
39078;SDS011;24829;49.208;12.080;2022-09-09T14:33:09;2.70;;;1.20;;
39078;SDS011;24829;49.208;12.080;2022-09-09T14:35:36;8.48;;;7.65;;
39078;SDS011;24829;49.208;12.080;2022-09-09T14:38:02;3.83;;;1.20;;
39078;SDS011;24829;49.208;12.080;2022-09-09T14:40:28;2.47;;;1.20;;
39078;SDS011;24829;49.208;12.080;2022-09-09T14:42:54;3.22;;;1.23;;
39078;SDS011;24829;49.208;12.080;2022-09-09T14:45:21;1.83;;;1.13;;
39078;SDS011;24829;49.208;12.080;2022-09-09T14:47:49;1.98;;;0.90;;
39078;SDS011;24829;49.208;12.080;2022-09-09T14:50:15;3.85;;;1.73;;
39078;SDS011;24829;49.208;12.080;2022-09-09T14:52:41;3.78;;;1.10;;
39078;SDS011;24829;49.208;12.080;2022-09-09T14:55:07;3.10;;;1.05;;
39078;SDS011;24829;49.208;12.080;2022-09-09T14:57:33;2.55;;;1.27;;
39078;SDS011;24829;49.208;12.080;2022-09-09T15:00:00;1.83;;;1.00;;
39078;SDS011;24829;49.208;12.080;2022-09-09T15:02:27;3.33;;;1.35;;
39078;SDS011;24829;49.208;12.080;2022-09-09T15:04:54;3.15;;;0.90;;
39078;SDS011;24829;49.208;12.080;2022-09-09T15:07:23;2.03;;;0.70;;
39078;SDS011;24829;49.208;12.080;2022-09-09T15:09:49;9.05;;;1.08;;
39078;SDS011;24829;49.208;12.080;2022-09-09T15:12:14;11.23;;;10.15;;
39078;SDS011;24829;49.208;12.080;2022-09-09T15:14:40;2.60;;;0.80;;
39078;SDS011;24829;49.208;12.080;2022-09-09T15:17:06;2.28;;;0.65;;
39078;SDS011;24829;49.208;12.080;2022-09-09T15:19:32;5.97;;;0.98;;
39078;SDS011;24829;49.208;12.080;2022-09-09T15:21:58;4.82;;;1.08;;
39078;SDS011;24829;49.208;12.080;2022-09-09T15:24:24;2.88;;;0.90;;
39078;SDS011;24829;49.208;12.080;2022-09-09T15:26:51;2.03;;;0.75;;
39078;SDS011;24829;49.208;12.080;2022-09-09T15:29:18;3.40;;;0.80;;
39078;SDS011;24829;49.208;12.080;2022-09-09T15:31:44;2.53;;;0.88;;
39078;SDS011;24829;49.208;12.080;2022-09-09T15:34:10;4.28;;;0.90;;
39078;SDS011;24829;49.208;12.080;2022-09-09T15:39:02;1.10;;;0.60;;
39078;SDS011;24829;49.208;12.080;2022-09-09T15:41:29;1.17;;;0.55;;
39078;SDS011;24829;49.208;12.080;2022-09-09T15:43:56;4.50;;;0.80;;
39078;SDS011;24829;49.208;12.080;2022-09-09T15:46:35;3.38;;;0.90;;
39078;SDS011;24829;49.208;12.080;2022-09-09T15:51:44;2.45;;;0.90;;
39078;SDS011;24829;49.208;12.080;2022-09-09T15:54:12;3.67;;;0.88;;
39078;SDS011;24829;49.208;12.080;2022-09-09T15:56:41;1.50;;;0.73;;
39078;SDS011;24829;49.208;12.080;2022-09-09T15:59:07;4.47;;;0.82;;
39078;SDS011;24829;49.208;12.080;2022-09-09T16:01:32;5.57;;;0.98;;
39078;SDS011;24829;49.208;12.080;2022-09-09T16:03:59;2.50;;;0.68;;
39078;SDS011;24829;49.208;12.080;2022-09-09T16:06:25;2.70;;;0.60;;
39078;SDS011;24829;49.208;12.080;2022-09-09T16:08:53;5.60;;;0.90;;
39078;SDS011;24829;49.208;12.080;2022-09-09T16:11:25;2.15;;;0.80;;
39078;SDS011;24829;49.208;12.080;2022-09-09T16:13:52;5.88;;;1.55;;
39078;SDS011;24829;49.208;12.080;2022-09-09T16:16:20;7.55;;;1.40;;
39078;SDS011;24829;49.208;12.080;2022-09-09T16:18:48;5.85;;;1.27;;
39078;SDS011;24829;49.208;12.080;2022-09-09T16:21:25;3.35;;;1.00;;
39078;SDS011;24829;49.208;12.080;2022-09-09T16:23:56;2.47;;;1.23;;
39078;SDS011;24829;49.208;12.080;2022-09-09T16:26:28;2.70;;;1.27;;
39078;SDS011;24829;49.208;12.080;2022-09-09T16:28:55;2.97;;;0.70;;
39078;SDS011;24829;49.208;12.080;2022-09-09T16:31:21;2.47;;;1.00;;
39078;SDS011;24829;49.208;12.080;2022-09-09T16:33:48;4.90;;;0.60;;
39078;SDS011;24829;49.208;12.080;2022-09-09T16:36:16;2.58;;;0.38;;
39078;SDS011;24829;49.208;12.080;2022-09-09T16:38:52;2.95;;;0.60;;
39078;SDS011;24829;49.208;12.080;2022-09-09T16:41:20;3.00;;;0.47;;
39078;SDS011;24829;49.208;12.080;2022-09-09T16:43:46;7.05;;;1.23;;
39078;SDS011;24829;49.208;12.080;2022-09-09T16:46:15;4.97;;;0.98;;
39078;SDS011;24829;49.208;12.080;2022-09-09T16:48:43;4.30;;;0.60;;
39078;SDS011;24829;49.208;12.080;2022-09-09T16:51:16;7.45;;;0.90;;
39078;SDS011;24829;49.208;12.080;2022-09-09T16:53:43;10.52;;;2.10;;
39078;SDS011;24829;49.208;12.080;2022-09-09T16:56:10;6.55;;;1.35;;
39078;SDS011;24829;49.208;12.080;2022-09-09T16:58:37;5.72;;;1.00;;
39078;SDS011;24829;49.208;12.080;2022-09-09T17:01:03;5.95;;;1.08;;
39078;SDS011;24829;49.208;12.080;2022-09-09T17:03:29;5.25;;;1.10;;
39078;SDS011;24829;49.208;12.080;2022-09-09T17:05:59;6.57;;;1.02;;
39078;SDS011;24829;49.208;12.080;2022-09-09T17:08:30;8.80;;;1.08;;